Aviation Digital Data Service (ADDS)

Output produced by METARs form (1522 UTC 28 September 2016)
found at http://aviationweather.gov/adds/metars/
 
KSLK 281136Z 2812/2912 VRB03KT P6SM SKC 
     FM281400 11007KT P6SM SCT060 
     FM281900 09009KT P6SM SCT035 SCT060 
     FM290000 VRB03KT P6SM SCT100